Skip Navigation Links
NOAA logo - Click to go to the NOAA homepage
NOAA's National Weather Service
Alaska Aviation Weather Unit
  NWS logo - Click to go to the NWS homepage
Left Navbar Graphic     09 AKDT = 17 GMT

   
NOAA is celebrating 200 years of science, service, and stewardship. Visit the NOAA 200th celebration Web site to learn more.
USA.gov is the U.S. Government's official Web portal to all Federal, state and local government Web resources and services.
Facebook
NWS on Facebook

Important Change Regarding the AAWU Web Presence

 

Over the last several months, the AAWU has been working to navigate its webpages to a nationally supported server. Security, as well as other needs, have necessitated the change.  In the process, we have made an effort to enhance the functionality of our website, as well as some of our products. As of June 20, 2017, aawu.arh.noaa.gov will be discontinued. The new AAWU web address is weather.gov/aawu. It is now live and will run in-parallel with the old site until it is discontinued. Please send any feedback or questions regarding the new webpages to nws.ar.aawu.webauthors@noaa.gov.  Thank you for your patience during this time of transition.
AAWU Home :: Display TAF Add Bookmark
METAR PANN 271153Z AUTO 10003KT CLR 01/M02 A3001 RMK AO2 SLP169 70002
     T00111017 10106 20000 52004 TSNO $=

METAR PANN 271253Z AUTO 00000KT CLR 01/M02 A3001 RMK AO2 SLP171
 T00111017 TSNO $=

METAR PANN 271353Z AUTO 00000KT SCT120 02/M01 A3001 RMK AO2 SLP171
     T00221011 TSNO $=

METAR PANN 271453Z AUTO 07004KT BKN120 07/M02 A3001 RMK AO2 SLP170
     T00671017 51002 TSNO $=

METAR PANN 271553Z AUTO 12004KT CLR 08/M03 A3002 RMK AO2 SLP174
 T00781028 TSNO $=

METAR PANN 271653Z AUTO 17012KT CLR 11/M06 A3002 RMK AO2 SLP173
     T01061056 TSNO $=


NOAA's National Weather Service
Alaska Aviation Weather Unit
6930 Sand Lake Road
Anchorage, AK 99502-1845
Disclaimer
Credits
Glossary
Privacy Policy
About Us
Career Opportunities
Contact AAWU Internet Services Site last modified: April, 17th 2012